createdAt,value
2022-12-08T00:19:29.311Z,7.13
2022-12-08T00:21:56.992Z,6.53
2022-12-08T00:24:25.718Z,5.78
2022-12-08T00:26:55.982Z,5.88
2022-12-08T00:29:23.185Z,6.63
2022-12-08T00:31:50.838Z,7.03
2022-12-08T00:34:18.412Z,5.18
2022-12-08T00:36:45.796Z,4.82
2022-12-08T00:39:14.033Z,4.57
2022-12-08T00:41:59.638Z,4.78
2022-12-08T00:44:26.856Z,4.30
2022-12-08T00:46:53.919Z,5.18
2022-12-08T00:49:21.008Z,5.20
2022-12-08T00:51:48.025Z,4.75
2022-12-08T00:54:16.480Z,5.65
2022-12-08T00:56:43.283Z,9.70
2022-12-08T00:59:10.407Z,8.93
2022-12-08T01:01:37.511Z,9.13
2022-12-08T01:04:06.677Z,9.00
2022-12-08T01:06:36.129Z,7.43
2022-12-08T01:09:07.160Z,6.63
2022-12-08T01:11:35.024Z,6.95
2022-12-08T01:14:06.327Z,6.88
2022-12-08T01:16:37.538Z,6.20
2022-12-08T01:19:04.712Z,5.93
2022-12-08T01:21:31.798Z,5.78
2022-12-08T01:24:00.880Z,6.40
2022-12-08T01:26:27.742Z,6.38
2022-12-08T01:28:54.863Z,7.55
2022-12-08T01:31:24.520Z,6.32
2022-12-08T01:33:54.790Z,6.15
2022-12-08T01:36:26.935Z,6.30
2022-12-08T01:38:55.212Z,6.30
2022-12-08T01:41:24.868Z,6.35
2022-12-08T01:44:24.154Z,6.25
2022-12-08T01:46:54.644Z,5.25
2022-12-08T01:49:38.425Z,5.50
2022-12-08T01:52:16.612Z,5.03
2022-12-08T01:54:50.783Z,5.55
2022-12-08T01:57:28.058Z,5.20
2022-12-08T02:00:11.897Z,5.18
2022-12-08T02:03:00.860Z,4.70
2022-12-08T02:05:33.731Z,4.28
2022-12-08T02:08:06.413Z,4.47
2022-12-08T02:10:39.359Z,4.82
2022-12-08T02:13:14.420Z,4.43
2022-12-08T02:16:05.439Z,4.47
2022-12-08T02:19:30.417Z,5.03
2022-12-08T02:22:17.166Z,5.20
2022-12-08T02:25:12.185Z,4.57
2022-12-08T02:28:14.800Z,5.15
2022-12-08T02:31:11.901Z,3.83
2022-12-08T02:34:05.617Z,4.18
2022-12-08T02:36:50.933Z,4.20
2022-12-08T02:39:53.800Z,3.40
2022-12-08T02:42:31.139Z,2.60
2022-12-08T02:45:04.575Z,3.60
2022-12-08T02:47:33.738Z,2.95
2022-12-08T02:50:01.333Z,2.88
2022-12-08T02:52:28.756Z,1.92
2022-12-08T02:55:27.054Z,2.25
2022-12-08T02:58:35.878Z,2.10
2022-12-08T03:01:32.162Z,2.25
2022-12-08T03:04:10.702Z,2.35
2022-12-08T03:06:51.860Z,2.72
2022-12-08T03:09:43.106Z,3.10
2022-12-08T03:12:36.512Z,2.88
2022-12-08T03:15:22.623Z,4.18
2022-12-08T03:17:57.584Z,5.05
2022-12-08T03:20:30.170Z,4.53
2022-12-08T03:23:03.065Z,4.57
2022-12-08T03:25:37.346Z,3.88
2022-12-08T03:28:09.358Z,3.40
2022-12-08T03:30:43.549Z,3.80
2022-12-08T03:33:37.831Z,3.60
2022-12-08T03:36:09.858Z,3.83
2022-12-08T03:38:58.998Z,3.50
2022-12-08T03:41:28.830Z,3.83
2022-12-08T03:44:29.095Z,3.75
2022-12-08T03:47:00.442Z,4.20
2022-12-08T03:49:27.844Z,4.25
2022-12-08T03:51:54.877Z,4.00
2022-12-08T03:54:37.183Z,4.50
2022-12-08T03:57:16.137Z,5.15
2022-12-08T03:59:46.497Z,4.50
2022-12-08T04:02:13.564Z,4.80
2022-12-08T04:04:44.824Z,4.22
2022-12-08T04:07:14.118Z,4.32
2022-12-08T04:09:43.707Z,4.18
2022-12-08T04:15:17.979Z,4.75
2022-12-08T04:18:20.998Z,5.07
2022-12-08T04:21:43.306Z,6.07
2022-12-08T04:31:16.120Z,6.95
2022-12-08T04:33:43.321Z,6.75
2022-12-08T04:36:10.616Z,7.18
2022-12-08T04:38:40.557Z,6.07
2022-12-08T04:41:07.839Z,6.70
2022-12-08T04:43:35.918Z,5.75
2022-12-08T04:46:06.261Z,6.07
2022-12-08T04:48:33.524Z,5.20
2022-12-08T04:51:00.598Z,5.65
2022-12-08T04:53:30.547Z,6.22
2022-12-08T04:55:57.795Z,6.15
2022-12-08T04:58:28.322Z,6.88
2022-12-08T05:01:05.888Z,7.97
2022-12-08T05:03:33.077Z,10.15
2022-12-08T05:06:09.358Z,9.63
2022-12-08T05:12:11.749Z,9.10
2022-12-08T05:17:57.151Z,13.18
2022-12-08T05:20:28.201Z,15.15
2022-12-08T05:22:55.282Z,10.45
2022-12-08T05:25:24.739Z,11.30
2022-12-08T05:28:24.629Z,10.82
2022-12-08T05:30:59.656Z,10.65
2022-12-08T05:33:26.798Z,8.98
2022-12-08T05:35:56.398Z,9.43
2022-12-08T05:38:30.873Z,8.93
2022-12-08T05:40:58.189Z,9.57
2022-12-08T05:43:25.441Z,9.80
2022-12-08T05:45:52.633Z,9.43
2022-12-08T05:48:22.189Z,12.20
2022-12-08T05:50:50.304Z,10.48
2022-12-08T05:53:19.226Z,11.73
2022-12-08T05:55:48.775Z,13.10
2022-12-08T05:58:18.592Z,12.75
2022-12-08T06:00:46.884Z,14.10
2022-12-08T06:03:17.404Z,14.93
2022-12-08T06:05:46.220Z,21.83
2022-12-08T06:08:14.109Z,15.55
2022-12-08T06:10:46.979Z,12.40
2022-12-08T17:19:40.229Z,5.00
2022-12-08T17:22:17.212Z,5.93
2022-12-08T17:24:44.262Z,4.93
2022-12-08T17:27:14.351Z,6.00
2022-12-08T17:29:41.281Z,6.70
2022-12-08T17:32:57.415Z,5.70
2022-12-08T18:21:40.509Z,8.27
2022-12-08T18:24:11.041Z,7.18
2022-12-08T18:27:12.073Z,7.45
2022-12-08T18:29:39.016Z,7.97
2022-12-08T18:32:44.266Z,7.10
2022-12-08T18:35:13.430Z,7.30
2022-12-08T18:37:40.312Z,6.18
2022-12-08T18:40:10.350Z,8.05
2022-12-08T18:42:37.155Z,8.27
2022-12-08T18:45:06.853Z,7.32
2022-12-08T18:47:36.381Z,7.55
2022-12-08T18:50:05.975Z,7.60
2022-12-08T18:52:33.619Z,6.70
2022-12-08T18:55:08.584Z,6.35
2022-12-08T18:57:40.217Z,6.32
2022-12-08T19:00:08.867Z,6.97
2022-12-08T19:02:37.563Z,7.45
2022-12-08T19:05:08.507Z,6.70
2022-12-08T19:07:54.415Z,6.50
2022-12-08T19:10:23.813Z,6.10
2022-12-08T19:12:59.254Z,6.70
2022-12-08T19:15:26.555Z,7.97
2022-12-08T19:30:49.010Z,6.68
2022-12-08T19:51:05.295Z,9.18
2022-12-08T19:57:10.347Z,7.88
2022-12-08T20:00:57.561Z,6.35
2022-12-08T20:03:48.889Z,7.03
2022-12-08T20:06:32.946Z,10.00
2022-12-08T20:12:08.229Z,8.02
2022-12-08T20:15:18.368Z,8.30
2022-12-08T20:17:50.515Z,7.30
2022-12-08T20:20:17.526Z,7.35
2022-12-08T20:22:54.439Z,7.80
2022-12-08T20:25:38.812Z,8.75
2022-12-08T20:52:58.230Z,5.50
2022-12-08T20:55:26.355Z,10.43
2022-12-08T20:58:00.246Z,9.13
2022-12-08T21:00:30.223Z,6.95
2022-12-08T21:03:07.720Z,6.28
2022-12-08T21:05:56.538Z,6.78
2022-12-08T23:17:56.997Z,5.82
2022-12-08T23:20:58.354Z,5.82
2022-12-08T23:24:03.081Z,4.60
2022-12-08T23:26:53.273Z,5.85
2022-12-08T23:29:20.264Z,5.00
2022-12-08T23:31:47.087Z,5.53
2022-12-08T23:34:54.737Z,5.03
2022-12-08T23:37:22.293Z,5.55
2022-12-08T23:39:49.683Z,5.70
2022-12-08T23:42:16.725Z,4.40
2022-12-08T23:45:11.026Z,5.70
